Time;durP1;ratioP1;P1;durP2;ratioP2;P2;SDS_P1;SDS_P2;PMS_P1;PMS_P2;Temp;Humidity;BMP_temperature;BMP_pressure;BME280_temperature;BME280_humidity;BME280_pressure;Samples;Min_cycle;Max_cycle;Signal;HPM_P1;HPM_P2
2022/01/27 00:04:32;;;;;;;3.40;2.10;;;7.60;99.50;;;;;;4933473;29;20079;-78
2022/01/27 00:06:58;;;;;;;4.15;2.10;;;7.50;99.10;;;;;;4933429;29;20049;-77
2022/01/27 00:09:42;;;;;;;7.00;2.30;;;7.50;99.10;;;;;;5027705;28;20082;-76
2022/01/27 00:12:08;;;;;;;4.75;1.95;;;7.50;98.90;;;;;;5032678;28;20099;-78
2022/01/27 00:14:44;;;;;;;5.80;2.00;;;7.50;98.70;;;;;;5032927;28;20101;-78
2022/01/27 00:17:14;;;;;;;3.63;1.70;;;7.60;99.00;;;;;;5033554;28;20036;-78
2022/01/27 00:19:41;;;;;;;6.60;2.10;;;7.60;99.20;;;;;;5032949;28;20083;-78
2022/01/27 00:22:07;;;;;;;4.28;2.20;;;7.60;99.50;;;;;;5032737;28;20056;-77
2022/01/27 00:24:33;;;;;;;4.45;1.90;;;7.70;99.60;;;;;;5014714;28;20033;-78
2022/01/27 00:26:59;;;;;;;2.87;1.50;;;7.70;99.60;;;;;;5032507;28;20377;-78
2022/01/27 00:29:26;;;;;;;6.80;2.20;;;7.70;99.60;;;;;;5032410;28;20021;-79
2022/01/27 00:31:52;;;;;;;5.15;2.40;;;7.60;99.70;;;;;;5033317;28;20025;-79
2022/01/27 00:34:18;;;;;;;6.20;1.97;;;7.50;99.90;;;;;;5032661;28;20049;-78
2022/01/27 00:36:44;;;;;;;3.97;2.15;;;7.50;99.90;;;;;;5032696;28;20275;-78
2022/01/27 00:39:10;;;;;;;7.32;1.77;;;7.40;99.90;;;;;;5032317;28;20025;-78
2022/01/27 00:41:36;;;;;;;3.20;1.45;;;7.40;99.90;;;;;;5032536;28;20025;-79
2022/01/27 00:44:03;;;;;;;4.82;2.28;;;7.40;99.90;;;;;;5032262;28;20029;-79
2022/01/27 00:46:32;;;;;;;5.55;2.70;;;7.40;99.90;;;;;;5032191;28;20044;-77
2022/01/27 00:48:58;;;;;;;5.35;2.42;;;7.40;99.90;;;;;;5032256;28;20091;-80
2022/01/27 00:51:28;;;;;;;3.97;2.33;;;7.40;99.90;;;;;;5032145;28;20021;-78
2022/01/27 00:56:36;;;;;;;7.35;2.20;;;7.30;99.90;;;;;;5031773;28;20049;-79
2022/01/27 00:59:27;;;;;;;5.10;2.50;;;7.30;99.90;;;;;;5031742;28;20038;-80
2022/01/27 01:04:41;;;;;;;5.18;2.15;;;7.30;99.90;;;;;;5031796;28;20116;-78
2022/01/27 01:07:09;;;;;;;6.00;2.22;;;7.30;99.90;;;;;;5032175;28;20379;-79
2022/01/27 01:14:49;;;;;;;5.07;2.50;;;7.40;99.90;;;;;;5031985;28;20164;-79
2022/01/27 01:20:01;;;;;;;5.80;2.22;;;7.40;99.90;;;;;;5031546;28;20084;-79
2022/01/27 01:33:13;;;;;;;7.78;2.50;;;7.30;99.90;;;;;;5031090;28;20116;-77
2022/01/27 01:36:54;;;;;;;5.15;2.55;;;7.40;99.90;;;;;;5031065;28;20430;-73
2022/01/27 01:39:21;;;;;;;6.95;2.47;;;7.40;99.90;;;;;;5031173;28;20025;-78
2022/01/27 01:41:47;;;;;;;3.67;1.80;;;7.40;99.90;;;;;;5030932;28;20544;-78
2022/01/27 01:44:13;;;;;;;5.53;1.90;;;7.40;99.90;;;;;;5012941;28;20478;-77
2022/01/27 01:46:40;;;;;;;4.38;2.33;;;7.50;99.90;;;;;;5030915;28;20284;-79
2022/01/27 01:49:06;;;;;;;4.43;2.20;;;7.40;99.90;;;;;;5031476;28;20034;-79
2022/01/27 01:51:34;;;;;;;5.60;2.10;;;7.40;99.90;;;;;;5030971;28;20018;-79
2022/01/27 01:54:01;;;;;;;4.63;2.25;;;7.40;99.90;;;;;;5013134;28;20075;-80
2022/01/27 01:56:27;;;;;;;7.40;2.55;;;7.30;99.90;;;;;;5030773;28;20072;-78
2022/01/27 01:58:54;;;;;;;4.05;2.05;;;7.30;99.90;;;;;;5030098;28;20053;-79
2022/01/27 02:01:20;;;;;;;6.37;2.10;;;7.40;99.90;;;;;;5030768;28;20134;-79
2022/01/27 02:03:47;;;;;;;4.25;1.90;;;7.30;99.90;;;;;;5030978;28;20056;-78
2022/01/27 02:06:22;;;;;;;5.50;2.35;;;7.30;99.90;;;;;;5030379;28;20374;-79
2022/01/27 02:19:44;;;;;;;3.72;1.85;;;7.10;99.90;;;;;;5030879;28;20060;-79
2022/01/27 02:22:10;;;;;;;4.43;1.90;;;7.10;99.90;;;;;;5030628;28;20060;-78
2022/01/27 02:24:37;;;;;;;3.03;1.67;;;7.10;99.90;;;;;;5030737;28;20032;-79
2022/01/27 02:27:04;;;;;;;4.97;2.00;;;7.10;99.90;;;;;;5030451;28;20026;-79
2022/01/27 02:29:30;;;;;;;;;;;7.20;99.90;;;;;;5031251;28;20095;-79
2022/01/27 02:31:59;;;;;;;5.43;2.40;;;7.20;99.90;;;;;;5030743;28;19909;-78
2022/01/27 02:34:27;;;;;;;5.40;2.00;;;7.10;99.90;;;;;;5030590;28;20025;-78
2022/01/27 02:36:53;;;;;;;;;;;7.20;99.90;;;;;;5030857;28;20025;-79
2022/01/27 02:39:19;;;;;;;3.85;1.63;;;7.10;99.90;;;;;;5030559;28;19905;-79
2022/01/27 02:41:47;;;;;;;4.20;1.80;;;7.20;99.90;;;;;;5030355;28;20041;-79
2022/01/27 02:44:56;;;;;;;6.88;1.95;;;7.20;99.90;;;;;;5030229;28;20021;-79
2022/01/27 02:47:25;;;;;;;4.43;2.10;;;7.20;99.90;;;;;;5029903;28;20075;-79
2022/01/27 02:49:52;;;;;;;3.50;1.80;;;7.20;99.90;;;;;;5030174;28;20056;-79
2022/01/27 02:52:18;;;;;;;5.60;2.15;;;7.20;99.90;;;;;;5029994;28;20025;-79
2022/01/27 02:54:44;;;;;;;6.05;1.60;;;7.10;99.90;;;;;;5030096;28;20382;-79
2022/01/27 02:57:11;;;;;;;3.63;2.17;;;7.10;99.90;;;;;;5030164;28;20018;-78
2022/01/27 02:59:37;;;;;;;2.90;1.90;;;7.10;99.90;;;;;;5030240;28;20026;-78
2022/01/27 03:02:03;;;;;;;5.35;2.20;;;7.10;99.90;;;;;;5029543;28;20446;-78
2022/01/27 03:04:30;;;;;;;4.45;1.88;;;7.10;99.90;;;;;;5030203;28;20026;-78
2022/01/27 03:06:58;;;;;;;4.38;1.85;;;7.00;99.90;;;;;;5029898;28;20524;-78
2022/01/27 03:09:24;;;;;;;4.60;2.17;;;7.10;99.90;;;;;;5030744;28;20382;-78
2022/01/27 03:11:51;;;;;;;3.60;1.80;;;7.10;99.90;;;;;;5033800;28;20044;-78
2022/01/27 03:14:22;;;;;;;3.65;1.83;;;7.20;99.90;;;;;;5033537;28;20110;-77
2022/01/27 03:16:58;;;;;;;3.92;1.30;;;7.20;99.90;;;;;;5033666;28;20481;-78
2022/01/27 03:19:25;;;;;;;4.33;1.30;;;7.30;99.90;;;;;;5033397;28;20017;-78
2022/01/27 03:21:52;;;;;;;;;;;7.30;99.90;;;;;;5033823;28;20112;-79
2022/01/27 03:24:32;;;;;;;4.50;1.88;;;7.30;99.90;;;;;;5033553;28;19999;-80
2022/01/27 03:26:58;;;;;;;6.32;1.60;;;7.30;99.90;;;;;;5033194;28;20107;-78
2022/01/27 03:29:25;;;;;;;3.00;1.92;;;7.30;99.90;;;;;;5033688;28;20352;-78
2022/01/27 03:31:52;;;;;;;3.50;2.10;;;7.30;99.90;;;;;;5033409;28;20026;-79
2022/01/27 03:34:18;;;;;;;3.50;1.95;;;7.30;99.90;;;;;;5034362;28;20037;-79
2022/01/27 03:36:44;;;;;;;6.03;2.38;;;7.30;99.90;;;;;;5015447;28;20075;-78
2022/01/27 03:39:10;;;;;;;5.88;2.20;;;7.30;99.90;;;;;;5033321;28;20060;-78
2022/01/27 03:41:39;;;;;;;3.05;2.00;;;7.30;99.90;;;;;;5033482;28;20033;-79
2022/01/27 03:44:07;;;;;;;5.45;1.80;;;7.30;99.90;;;;;;5033025;28;20034;-80
2022/01/27 03:46:33;;;;;;;6.45;2.13;;;7.40;99.90;;;;;;5033214;28;20026;-76
2022/01/27 03:49:00;;;;;;;3.30;1.85;;;7.40;99.90;;;;;;5033547;28;20388;-79
2022/01/27 03:51:26;;;;;;;4.38;1.90;;;7.50;99.90;;;;;;5014982;28;20025;-78
2022/01/27 03:53:52;;;;;;;5.93;1.70;;;7.50;99.90;;;;;;5033448;28;20128;-78
2022/01/27 03:56:18;;;;;;;3.25;1.70;;;7.50;99.90;;;;;;5033275;28;20033;-78
2022/01/27 03:58:44;;;;;;;4.55;1.85;;;7.50;99.90;;;;;;5015173;28;20021;-79
2022/01/27 04:01:10;;;;;;;5.38;2.30;;;7.50;99.90;;;;;;5014979;28;20524;-78
2022/01/27 04:03:38;;;;;;;5.60;2.03;;;7.50;99.90;;;;;;5015393;28;20041;-79
2022/01/27 04:06:08;;;;;;;3.58;1.95;;;7.40;99.90;;;;;;5033474;28;20080;-79
2022/01/27 04:08:37;;;;;;;4.00;1.90;;;7.40;99.90;;;;;;5034060;28;20457;-79
2022/01/27 04:11:08;;;;;;;4.10;1.83;;;7.30;99.90;;;;;;5033468;28;20026;-79
2022/01/27 04:13:35;;;;;;;3.13;1.90;;;7.20;99.90;;;;;;5033635;28;20466;-78
2022/01/27 04:16:02;;;;;;;5.75;2.03;;;7.20;99.90;;;;;;5033573;28;20478;-78
2022/01/27 04:18:28;;;;;;;3.85;1.92;;;7.20;99.90;;;;;;5033605;28;20053;-79
2022/01/27 04:20:54;;;;;;;3.75;1.80;;;7.20;99.90;;;;;;5032882;28;20107;-79
2022/01/27 04:23:20;;;;;;;3.90;1.80;;;7.20;99.90;;;;;;5015380;28;20029;-78
2022/01/27 04:25:47;;;;;;;4.78;2.10;;;7.20;99.90;;;;;;5015158;28;20359;-78
2022/01/27 04:28:19;;;;;;;6.10;1.92;;;7.20;99.90;;;;;;5034385;28;20029;-78
2022/01/27 04:30:46;;;;;;;4.72;1.98;;;7.20;99.90;;;;;;5035488;28;20037;-79
2022/01/27 04:33:12;;;;;;;5.07;1.80;;;7.30;99.90;;;;;;5034728;28;20041;-78
2022/01/27 04:35:45;;;;;;;4.93;1.85;;;7.30;99.90;;;;;;5034816;28;20077;-78
2022/01/27 04:41:03;;;;;;;4.75;1.92;;;7.30;99.90;;;;;;5034625;28;20026;-79
2022/01/27 04:43:38;;;;;;;3.47;1.90;;;7.30;99.90;;;;;;5034906;28;20033;-78
2022/01/27 04:48:39;;;;;;;5.72;1.90;;;7.20;99.90;;;;;;5034221;28;20030;-79
2022/01/27 04:51:08;;;;;;;4.22;1.80;;;7.20;99.90;;;;;;5034600;28;20076;-79
2022/01/27 04:53:44;;;;;;;5.78;2.15;;;7.20;99.90;;;;;;5033889;28;20037;-77
2022/01/27 04:56:13;;;;;;;3.45;1.80;;;7.20;99.90;;;;;;5033906;28;20022;-78
2022/01/27 04:58:43;;;;;;;3.05;1.75;;;7.30;99.90;;;;;;5033780;28;20105;-78
2022/01/27 05:01:09;;;;;;;5.03;1.67;;;7.30;99.90;;;;;;5034126;28;20026;-80
2022/01/27 05:03:45;;;;;;;5.20;1.98;;;7.30;99.90;;;;;;5033551;28;20091;-79
2022/01/27 05:06:11;;;;;;;3.50;1.50;;;7.40;99.90;;;;;;5034104;28;20037;-76
2022/01/27 05:08:38;;;;;;;5.82;2.08;;;7.40;99.90;;;;;;5033814;28;20470;-78
2022/01/27 05:13:38;;;;;;;4.35;2.05;;;7.40;99.90;;;;;;5033668;28;20268;-78
2022/01/27 05:16:04;;;;;;;4.50;2.10;;;7.40;99.90;;;;;;5033360;28;20036;-78
2022/01/27 05:18:30;;;;;;;7.75;2.00;;;7.40;99.90;;;;;;5033508;28;20485;-79
2022/01/27 05:20:56;;;;;;;5.93;1.70;;;7.40;99.90;;;;;;5033661;28;20036;-78
2022/01/27 05:23:22;;;;;;;3.10;1.85;;;7.40;99.90;;;;;;5033362;28;20043;-78
2022/01/27 05:25:48;;;;;;;3.95;1.80;;;7.50;99.90;;;;;;5033816;28;20026;-78
2022/01/27 05:28:14;;;;;;;3.72;1.80;;;7.40;99.90;;;;;;5034156;28;20061;-78
2022/01/27 05:30:40;;;;;;;4.30;1.48;;;7.40;99.90;;;;;;5034087;28;20027;-79
2022/01/27 05:33:09;;;;;;;3.75;1.80;;;7.50;99.90;;;;;;5033050;28;20100;-78
2022/01/27 05:35:36;;;;;;;6.07;1.70;;;7.50;99.90;;;;;;5033516;28;20045;-78
2022/01/27 05:38:02;;;;;;;2.45;1.50;;;7.50;99.90;;;;;;5034043;28;20052;-78
2022/01/27 05:40:29;;;;;;;4.53;1.88;;;7.50;99.90;;;;;;5033073;28;20120;-78
2022/01/27 05:42:55;;;;;;;5.03;1.70;;;7.50;99.90;;;;;;5033600;28;20109;-79
2022/01/27 05:45:21;;;;;;;6.35;1.95;;;7.50;99.90;;;;;;5033599;28;20037;-77
2022/01/27 05:47:47;;;;;;;3.80;1.80;;;7.40;99.90;;;;;;5033415;28;20053;-78
2022/01/27 05:50:14;;;;;;;2.83;1.70;;;7.40;99.90;;;;;;5033431;28;20021;-78
2022/01/27 05:52:40;;;;;;;3.03;1.52;;;7.40;99.90;;;;;;5032902;28;20075;-78
2022/01/27 05:55:07;;;;;;;5.30;1.75;;;7.60;99.90;;;;;;5032641;28;20030;-78
2022/01/27 05:57:33;;;;;;;2.45;1.60;;;7.80;99.90;;;;;;5032766;28;20079;-78
2022/01/27 05:59:59;;;;;;;4.40;1.48;;;7.90;99.90;;;;;;5032597;28;20030;-78
2022/01/27 06:02:25;;;;;;;3.35;1.60;;;7.90;99.90;;;;;;5032032;28;20075;-78
2022/01/27 06:04:51;;;;;;;3.63;1.40;;;7.90;99.90;;;;;;5032691;28;20104;-78
2022/01/27 06:07:17;;;;;;;4.75;1.70;;;7.90;99.90;;;;;;5032909;28;20025;-79
2022/01/27 06:09:43;;;;;;;4.50;1.55;;;7.80;99.90;;;;;;5033373;28;20026;-78
2022/01/27 06:12:10;;;;;;;3.55;1.90;;;7.80;99.90;;;;;;5033282;28;20022;-78
2022/01/27 06:14:36;;;;;;;3.17;1.73;;;7.80;99.90;;;;;;5033354;28;20501;-78
2022/01/27 06:17:02;;;;;;;6.10;2.00;;;7.80;99.90;;;;;;5032662;28;20100;-79
2022/01/27 06:19:28;;;;;;;3.10;1.60;;;7.80;99.90;;;;;;5032657;28;20046;-78
2022/01/27 06:21:55;;;;;;;3.88;1.75;;;7.80;99.90;;;;;;5032710;28;20528;-78
2022/01/27 06:24:21;;;;;;;3.10;1.97;;;7.80;99.90;;;;;;5033047;28;20528;-80
2022/01/27 06:26:47;;;;;;;4.85;1.90;;;7.80;99.90;;;;;;5032973;28;20017;-79
2022/01/27 06:29:13;;;;;;;2.92;1.45;;;7.80;99.90;;;;;;5032521;28;20036;-79
2022/01/27 06:31:39;;;;;;;4.85;1.73;;;7.90;99.90;;;;;;5032170;28;20327;-78
2022/01/27 06:34:05;;;;;;;4.20;1.67;;;8.10;99.90;;;;;;5031914;28;20056;-79
2022/01/27 06:36:31;;;;;;;2.72;1.65;;;8.60;99.90;;;;;;5014228;28;20021;-80
2022/01/27 06:38:57;;;;;;;3.67;1.73;;;9.20;99.90;;;;;;5032046;28;20030;-82
2022/01/27 06:41:23;;;;;;;4.87;1.90;;;9.90;99.90;;;;;;5031863;28;20029;-80
2022/01/27 06:43:49;;;;;;;5.70;1.85;;;10.70;99.70;;;;;;5033440;28;20339;-81
2022/01/27 06:46:15;;;;;;;4.17;1.30;;;11.50;99.00;;;;;;5036395;28;20412;-82
2022/01/27 06:48:41;;;;;;;11.45;1.73;;;12.30;97.10;;;;;;5036493;28;20555;-86
2022/01/27 06:51:07;;;;;;;3.78;1.65;;;12.90;96.00;;;;;;5036736;28;20371;-87
2022/01/27 06:53:33;;;;;;;3.47;1.33;;;12.80;95.20;;;;;;5035811;28;20108;-87
2022/01/27 06:56:00;;;;;;;4.75;1.63;;;12.80;95.10;;;;;;5036024;28;20025;-85
2022/01/27 06:58:26;;;;;;;;;;;13.00;94.80;;;;;;5036678;28;20101;-87
2022/01/27 07:00:52;;;;;;;6.20;1.98;;;13.30;94.60;;;;;;5035401;28;20242;-86
2022/01/27 07:03:18;;;;;;;6.18;1.42;;;13.80;94.50;;;;;;5034604;28;20049;-88
2022/01/27 07:05:45;;;;;;;8.02;1.73;;;14.40;93.20;;;;;;5034326;28;20469;-87
2022/01/27 07:08:11;;;;;;;5.20;1.73;;;15.00;92.40;;;;;;5035258;28;20372;-87
2022/01/27 07:10:37;;;;;;;4.00;1.47;;;15.60;91.60;;;;;;5035666;28;20532;-86
2022/01/27 07:13:03;;;;;;;3.93;1.50;;;16.30;91.10;;;;;;5034742;28;20037;-87
2022/01/27 07:15:30;;;;;;;5.15;1.20;;;16.40;88.80;;;;;;5034968;28;20079;-86
2022/01/27 07:17:56;;;;;;;3.97;1.40;;;16.90;89.30;;;;;;5016947;28;20029;-86
2022/01/27 07:20:22;;;;;;;5.77;1.80;;;17.20;89.10;;;;;;5034551;28;20423;-76
2022/01/27 07:22:48;;;;;;;5.72;1.50;;;17.90;86.30;;;;;;5034420;28;20303;-74
2022/01/27 07:25:14;;;;;;;3.45;1.40;;;18.70;84.50;;;;;;5034959;28;20021;-74
2022/01/27 07:27:41;;;;;;;2.78;1.10;;;19.50;82.30;;;;;;5034386;28;20409;-75
2022/01/27 07:30:13;;;;;;;6.45;1.30;;;19.80;80.10;;;;;;5034656;28;20434;-74
2022/01/27 07:32:39;;;;;;;5.70;1.75;;;20.90;77.40;;;;;;5034504;28;20038;-74
2022/01/27 07:35:06;;;;;;;3.45;1.50;;;21.80;76.10;;;;;;5034618;28;20374;-73
2022/01/27 07:37:32;;;;;;;8.27;1.70;;;22.40;73.10;;;;;;5017334;28;20052;-69
2022/01/27 07:39:58;;;;;;;7.20;2.30;;;23.20;71.00;;;;;;5034771;28;20029;-69
2022/01/27 07:42:24;;;;;;;13.77;3.63;;;23.80;70.00;;;;;;5034351;28;20079;-72
2022/01/27 07:44:50;;;;;;;3.53;1.70;;;24.30;67.20;;;;;;5034661;28;20026;-76
2022/01/27 07:47:16;;;;;;;7.30;1.65;;;24.20;66.50;;;;;;5034755;28;20033;-75
2022/01/27 07:49:42;;;;;;;4.22;1.70;;;23.30;67.30;;;;;;5034217;28;20029;-75
2022/01/27 07:52:08;;;;;;;6.15;1.63;;;22.80;69.50;;;;;;5034426;28;20510;-75
2022/01/27 07:54:34;;;;;;;7.47;1.80;;;22.60;69.40;;;;;;5034077;28;20099;-77
2022/01/27 07:57:00;;;;;;;4.00;1.60;;;22.30;69.70;;;;;;5033430;28;20108;-75
2022/01/27 07:59:26;;;;;;;14.82;2.63;;;21.50;71.50;;;;;;5034139;28;20030;-72
2022/01/27 08:01:52;;;;;;;6.03;1.80;;;19.60;75.60;;;;;;5034195;28;20026;-70
2022/01/27 08:04:18;;;;;;;5.95;1.80;;;17.50;79.10;;;;;;5034182;28;20030;-69
2022/01/27 08:06:45;;;;;;;5.00;1.83;;;16.70;82.40;;;;;;5034573;28;20446;-74
2022/01/27 08:09:11;;;;;;;4.70;1.80;;;16.00;84.70;;;;;;5033078;28;20037;-73
2022/01/27 08:11:37;;;;;;;5.83;2.13;;;15.60;85.10;;;;;;5034303;28;20029;-72
2022/01/27 08:14:03;;;;;;;4.07;1.93;;;15.30;87.10;;;;;;5034156;28;20264;-72
2022/01/27 08:16:29;;;;;;;9.23;2.10;;;15.20;88.30;;;;;;5033745;28;20113;-70
2022/01/27 08:18:55;;;;;;;3.53;1.70;;;14.90;88.70;;;;;;5033754;28;20271;-72
2022/01/27 08:21:21;;;;;;;6.45;1.65;;;14.50;88.60;;;;;;5034345;28;20061;-71
2022/01/27 08:23:47;;;;;;;4.60;1.77;;;14.20;88.80;;;;;;5034384;28;20041;-75
2022/01/27 08:26:26;;;;;;;3.47;1.70;;;14.10;89.80;;;;;;5033921;28;20263;-74
2022/01/27 08:29:03;;;;;;;5.70;1.50;;;14.10;88.70;;;;;;5033976;28;20260;-72
2022/01/27 08:31:33;;;;;;;5.63;2.67;;;13.80;89.80;;;;;;5033836;28;20387;-72
2022/01/27 08:34:03;;;;;;;4.30;1.80;;;13.50;89.90;;;;;;5033658;28;20527;-69
2022/01/27 08:36:29;;;;;;;3.25;1.80;;;13.70;89.90;;;;;;5033961;28;20032;-72
2022/01/27 08:38:55;;;;;;;5.50;2.00;;;13.70;90.00;;;;;;5033847;28;20033;-72
2022/01/27 08:41:21;;;;;;;3.63;1.50;;;13.80;90.00;;;;;;5033764;28;20036;-70
2022/01/27 08:43:48;;;;;;;3.97;1.60;;;13.90;88.10;;;;;;5033268;28;20044;-71
2022/01/27 08:46:14;;;;;;;5.07;1.85;;;13.80;88.40;;;;;;5032745;28;20033;-70
2022/01/27 08:48:42;;;;;;;4.50;1.50;;;13.90;86.70;;;;;;5032435;28;20083;-70
2022/01/27 08:51:10;;;;;;;3.17;1.70;;;13.80;85.60;;;;;;5032315;28;20350;-70
2022/01/27 08:53:37;;;;;;;5.10;1.77;;;13.90;84.00;;;;;;5032330;28;20056;-71
2022/01/27 08:56:04;;;;;;;7.40;2.30;;;13.70;84.70;;;;;;5031507;28;20018;-69
2022/01/27 08:58:31;;;;;;;7.57;3.30;;;13.80;84.30;;;;;;5031888;28;20105;-70
2022/01/27 09:00:57;;;;;;;11.50;4.10;;;13.80;84.20;;;;;;5031488;28;20398;-69
2022/01/27 09:03:23;;;;;;;19.48;7.80;;;13.90;84.00;;;;;;5031441;28;20060;-69
2022/01/27 09:05:49;;;;;;;11.33;4.50;;;13.90;83.90;;;;;;5031472;28;20021;-69
2022/01/27 09:08:16;;;;;;;12.70;4.27;;;14.10;83.60;;;;;;5031799;28;20030;-70
2022/01/27 09:10:42;;;;;;;7.90;2.40;;;14.30;82.90;;;;;;5031980;28;20488;-71
2022/01/27 09:13:08;;;;;;;3.95;1.90;;;14.50;81.70;;;;;;5032269;28;20469;-70
2022/01/27 09:15:34;;;;;;;4.70;1.35;;;14.70;81.30;;;;;;5031757;28;20143;-70
2022/01/27 09:18:01;;;;;;;7.07;3.10;;;14.70;79.60;;;;;;5032299;28;20354;-68
2022/01/27 09:20:27;;;;;;;10.07;3.83;;;14.40;80.90;;;;;;5032204;28;20605;-70
2022/01/27 09:22:56;;;;;;;;;;;14.60;81.10;;;;;;5032184;28;20417;-69
2022/01/27 09:25:29;;;;;;;3.13;1.55;;;14.70;80.90;;;;;;5032356;28;19905;-70
2022/01/27 09:27:58;;;;;;;4.55;1.17;;;14.50;80.80;;;;;;5032496;28;20146;-68
2022/01/27 09:30:24;;;;;;;3.85;1.40;;;14.90;80.80;;;;;;5032142;28;20386;-70
2022/01/27 09:32:51;;;;;;;6.40;1.30;;;15.00;81.50;;;;;;5032740;28;20026;-69
2022/01/27 09:35:17;;;;;;;4.13;1.23;;;14.70;81.30;;;;;;5032706;28;20057;-70
2022/01/27 09:37:43;;;;;;;4.18;1.33;;;14.60;82.80;;;;;;5032203;28;20320;-68
2022/01/27 09:40:11;;;;;;;4.43;1.70;;;14.70;83.20;;;;;;5032124;28;20026;-69
2022/01/27 09:42:38;;;;;;;4.00;1.67;;;14.70;84.50;;;;;;5032208;28;20377;-70
2022/01/27 09:45:07;;;;;;;5.18;1.77;;;15.00;84.00;;;;;;5031896;28;20100;-70
2022/01/27 09:47:35;;;;;;;3.92;1.88;;;15.30;84.90;;;;;;5014000;28;20029;-69
2022/01/27 09:50:18;;;;;;;3.47;1.92;;;15.30;85.60;;;;;;5031703;28;20049;-68
2022/01/27 09:52:44;;;;;;;3.75;1.90;;;15.50;86.50;;;;;;5031504;28;20060;-71
2022/01/27 09:55:10;;;;;;;4.50;2.30;;;15.50;86.10;;;;;;5013545;28;20053;-69
2022/01/27 09:57:36;;;;;;;5.07;2.53;;;15.30;86.90;;;;;;5031267;28;20450;-70
2022/01/27 10:00:04;;;;;;;5.43;2.33;;;15.20;88.20;;;;;;5031416;28;20021;-70
2022/01/27 10:02:31;;;;;;;6.60;2.53;;;15.30;88.90;;;;;;5031062;28;20041;-70
2022/01/27 10:04:58;;;;;;;3.83;1.70;;;15.40;90.00;;;;;;5031205;28;20105;-70
2022/01/27 10:07:31;;;;;;;5.07;1.92;;;15.20;91.70;;;;;;5031250;28;20454;-68
2022/01/27 10:09:58;;;;;;;6.95;2.00;;;15.00;92.40;;;;;;5031476;28;20017;-65
2022/01/27 10:12:29;;;;;;;7.38;2.20;;;15.20;92.70;;;;;;5031874;28;20048;-70
2022/01/27 10:15:10;;;;;;;6.32;1.90;;;15.00;93.10;;;;;;5031387;28;20024;-70
2022/01/27 10:17:39;;;;;;;3.75;2.00;;;15.20;92.90;;;;;;5031472;28;20021;-70
2022/01/27 10:20:16;;;;;;;4.28;1.65;;;15.20;93.00;;;;;;5030511;28;20052;-67
2022/01/27 10:22:42;;;;;;;5.28;2.10;;;15.40;93.20;;;;;;5029621;28;20497;-71
2022/01/27 10:25:12;;;;;;;3.95;2.00;;;15.40;92.70;;;;;;5029405;28;20224;-69
2022/01/27 10:32:55;;;;;;;7.93;2.28;;;15.50;93.10;;;;;;5030613;28;20036;-73
2022/01/27 10:35:24;;;;;;;10.50;2.38;;;15.70;93.20;;;;;;5029558;28;20478;-67
2022/01/27 10:38:05;;;;;;;4.63;1.83;;;15.90;93.00;;;;;;5031086;28;20378;-68
2022/01/27 10:40:41;;;;;;;6.50;1.58;;;16.10;92.70;;;;;;5013705;28;20021;-70
2022/01/27 10:43:16;;;;;;;3.97;1.58;;;16.10;92.90;;;;;;5030742;28;20419;-70
2022/01/27 10:46:07;;;;;;;3.65;1.73;;;16.20;92.80;;;;;;5030500;28;20102;-69
2022/01/27 10:48:51;;;;;;;4.60;1.85;;;16.30;92.90;;;;;;5030838;28;20126;-70
2022/01/27 10:51:32;;;;;;;4.00;1.98;;;16.40;93.30;;;;;;5028005;28;20034;-70
2022/01/27 10:56:31;;;;;;;6.95;1.98;;;16.20;92.90;;;;;;5030700;28;20030;-70
2022/01/27 10:58:59;;;;;;;5.35;2.25;;;16.20;92.60;;;;;;5030734;28;20095;-72
2022/01/27 11:01:28;;;;;;;5.22;2.25;;;15.60;93.30;;;;;;5030283;28;20458;-73
2022/01/27 11:03:57;;;;;;;6.28;1.90;;;15.50;93.80;;;;;;5030112;28;20095;-72
2022/01/27 11:06:26;;;;;;;8.65;2.00;;;15.70;93.60;;;;;;5030908;28;20052;-71
2022/01/27 11:08:55;;;;;;;3.90;1.70;;;15.80;93.40;;;;;;5031005;28;20026;-73
2022/01/27 11:11:26;;;;;;;5.30;2.33;;;15.80;93.30;;;;;;5030910;28;20063;-71
2022/01/27 11:13:54;;;;;;;6.28;1.58;;;16.00;93.20;;;;;;5031017;28;20033;-69
2022/01/27 11:16:28;;;;;;;3.47;1.40;;;16.00;92.90;;;;;;5031067;28;20094;-70
2022/01/27 11:19:13;;;;;;;4.88;1.98;;;15.90;92.70;;;;;;5030677;28;20336;-73
2022/01/27 11:21:43;;;;;;;4.45;2.20;;;15.80;93.00;;;;;;5030650;28;20026;-72
2022/01/27 11:24:24;;;;;;;6.32;2.95;;;15.60;93.40;;;;;;5030620;28;20064;-70
2022/01/27 11:26:55;;;;;;;5.90;1.80;;;15.50;94.10;;;;;;5031103;28;20036;-71
2022/01/27 11:29:24;;;;;;;4.95;1.80;;;15.40;94.00;;;;;;5031392;28;20036;-71
2022/01/27 11:32:08;;;;;;;8.20;1.80;;;15.40;94.20;;;;;;5034446;28;20091;-71
2022/01/27 11:34:55;;;;;;;5.32;1.60;;;15.30;94.50;;;;;;5017031;28;20389;-72
2022/01/27 11:37:36;;;;;;;4.45;1.73;;;15.20;94.70;;;;;;5035370;28;20051;-73
2022/01/27 11:40:12;;;;;;;4.93;1.55;;;15.00;94.80;;;;;;5017067;28;20152;-74
2022/01/27 11:42:38;;;;;;;5.00;1.40;;;15.10;95.00;;;;;;5034968;28;20500;-72
2022/01/27 11:45:23;;;;;;;7.77;2.70;;;15.20;94.90;;;;;;5035286;28;20025;-72
2022/01/27 11:47:54;;;;;;;5.35;1.52;;;15.30;95.00;;;;;;5034939;28;20090;-73
2022/01/27 11:50:38;;;;;;;4.05;1.33;;;15.40;95.00;;;;;;5034660;28;20478;-71
2022/01/27 11:53:11;;;;;;;6.38;1.40;;;15.70;95.20;;;;;;5034996;28;20030;-72
2022/01/27 11:55:44;;;;;;;5.18;1.50;;;15.80;94.70;;;;;;5032882;28;20025;-71
2022/01/27 11:58:19;;;;;;;5.30;1.50;;;15.90;94.30;;;;;;5030697;28;20025;-70
2022/01/27 12:01:02;;;;;;;3.83;1.25;;;16.00;94.10;;;;;;5032191;28;20075;-71
2022/01/27 12:03:28;;;;;;;4.07;1.40;;;16.00;94.30;;;;;;5028880;28;20037;-72
2022/01/27 12:06:13;;;;;;;2.80;1.48;;;16.10;94.20;;;;;;5032516;28;20026;-70
2022/01/27 12:08:39;;;;;;;6.53;1.85;;;16.10;94.00;;;;;;5031302;28;20029;-70
2022/01/27 12:11:09;;;;;;;8.02;1.80;;;16.10;94.20;;;;;;5032710;28;20445;-71
2022/01/27 12:13:45;;;;;;;5.05;1.85;;;16.10;94.30;;;;;;5031996;28;20079;-66
2022/01/27 12:19:07;;;;;;;3.35;1.33;;;16.20;93.80;;;;;;5032811;28;20029;-69
2022/01/27 12:21:44;;;;;;;4.38;1.63;;;16.40;93.80;;;;;;5031020;28;20476;-70
2022/01/27 12:24:18;;;;;;;6.88;1.70;;;16.60;94.90;;;;;;5030536;28;20520;-66
2022/01/27 12:26:50;;;;;;;3.45;1.38;;;16.70;93.20;;;;;;5032363;28;20013;-70
2022/01/27 12:29:32;;;;;;;4.55;1.50;;;16.70;93.30;;;;;;5032358;28;20072;-70
2022/01/27 12:32:08;;;;;;;5.20;1.48;;;16.70;93.50;;;;;;5031106;28;20107;-71
2022/01/27 12:34:36;;;;;;;4.88;1.90;;;16.90;93.30;;;;;;5030833;28;20021;-70
2022/01/27 12:37:08;;;;;;;8.95;1.70;;;16.70;93.40;;;;;;5032187;28;20374;-67
2022/01/27 12:39:39;;;;;;;6.43;1.60;;;16.60;93.60;;;;;;5013969;28;20110;-70
2022/01/27 12:42:08;;;;;;;4.63;1.80;;;16.60;93.70;;;;;;5031019;28;20087;-70
2022/01/27 12:44:35;;;;;;;5.40;1.50;;;16.70;93.70;;;;;;5033425;28;20029;-72
2022/01/27 12:47:03;;;;;;;4.53;1.52;;;16.70;94.00;;;;;;5033631;28;20036;-73
2022/01/27 12:49:49;;;;;;;4.60;1.55;;;16.60;94.00;;;;;;5033387;28;20044;-71
2022/01/27 12:52:19;;;;;;;5.03;1.50;;;16.60;94.40;;;;;;5033197;28;20021;-73
2022/01/27 12:54:50;;;;;;;4.32;1.55;;;16.70;94.50;;;;;;5015753;28;20218;-71
2022/01/27 12:57:23;;;;;;;4.57;1.33;;;16.50;95.10;;;;;;5033277;28;20467;-72
2022/01/27 12:59:52;;;;;;;4.18;1.58;;;16.50;94.60;;;;;;5032448;28;20116;-72
2022/01/27 13:02:19;;;;;;;4.38;1.50;;;16.30;94.80;;;;;;5032248;28;20105;-73
2022/01/27 13:04:46;;;;;;;8.63;1.70;;;15.90;94.90;;;;;;5032953;28;20033;-72
2022/01/27 13:07:12;;;;;;;8.73;1.48;;;16.00;95.00;;;;;;5033413;28;20120;-71
2022/01/27 13:09:39;;;;;;;3.57;1.40;;;16.00;94.90;;;;;;5033348;28;20041;-72
2022/01/27 13:12:20;;;;;;;3.90;1.38;;;16.00;95.00;;;;;;5033338;28;20271;-72
2022/01/27 13:15:10;;;;;;;3.20;1.25;;;15.90;94.80;;;;;;5032925;28;20030;-72
2022/01/27 13:20:28;;;;;;;3.88;1.50;;;15.70;94.90;;;;;;5033672;28;20037;-71
2022/01/27 13:23:22;;;;;;;3.67;1.35;;;16.00;94.90;;;;;;5033145;28;20470;-71
2022/01/27 13:26:03;;;;;;;5.72;1.60;;;15.80;95.10;;;;;;5033514;28;20091;-71
2022/01/27 13:28:36;;;;;;;5.60;1.67;;;15.80;95.10;;;;;;5033461;28;20429;-72
2022/01/27 13:31:12;;;;;;;3.47;1.23;;;15.40;95.40;;;;;;5033577;28;20434;-72
2022/01/27 13:33:46;;;;;;;6.05;1.63;;;15.60;95.50;;;;;;5033041;28;20366;-72
2022/01/27 13:36:22;;;;;;;3.08;1.30;;;15.70;95.40;;;;;;5033183;28;20026;-72
2022/01/27 13:39:24;;;;;;;5.57;1.30;;;15.90;95.00;;;;;;5033707;28;20112;-72
2022/01/27 13:41:50;;;;;;;3.45;1.40;;;16.10;94.70;;;;;;5032896;28;20112;-72
2022/01/27 13:44:18;;;;;;;4.10;1.70;;;16.40;94.60;;;;;;5032854;28;20481;-72
2022/01/27 13:46:58;;;;;;;5.10;1.40;;;16.30;94.70;;;;;;5033529;28;20421;-72
2022/01/27 13:49:30;;;;;;;2.60;1.30;;;16.40;94.60;;;;;;5032946;28;20091;-72
2022/01/27 13:52:12;;;;;;;6.10;1.70;;;16.50;94.20;;;;;;5033004;28;20052;-72
2022/01/27 13:54:43;;;;;;;3.95;1.63;;;16.50;94.50;;;;;;5032391;28;20022;-72
2022/01/27 13:57:22;;;;;;;5.00;1.50;;;16.30;94.30;;;;;;5032682;28;20064;-71
2022/01/27 14:02:33;;;;;;;7.15;1.40;;;16.20;94.40;;;;;;5032407;28;20072;-72
2022/01/27 14:05:02;;;;;;;5.68;1.80;;;16.20;94.70;;;;;;5032591;28;20040;-71
2022/01/27 14:07:33;;;;;;;3.78;1.40;;;16.30;94.70;;;;;;5015315;28;20166;-72